Aberdeen, North Carolina
Current Conditions -  °F | °C
As of 11:55 PM on Saturday 22 Nov 2014 (Local Time) from KSOP Reporting Station
Clear Clear  
Wind Chill:   Ceiling: Unl
Heat Index:   Visibility: 8mi
Dew Point: -4°   Wind: 0mph
Humidity: 65%   Direction: NA
Pressure: 30.31"   Gusts: NA
Location:  35.13°N, 79.43°W
Report Text: KSOP 230455Z AUTO 00000KT 8SM CLR 02/M04 A3031 RMK AO1
Loading
Personal Weather Stations






























Interactive Weather Map New forecast layout! Learn more

10-Day Weather Forecast

Advertisements
Track Severe Weather on mobile